createdAt,value
2023-03-15T00:01:37.540Z,6.49
2023-03-15T00:04:10.044Z,6.47
2023-03-15T00:06:42.276Z,6.41
2023-03-15T00:09:14.604Z,6.34
2023-03-15T00:11:46.965Z,6.34
2023-03-15T00:14:19.403Z,6.29
2023-03-15T00:16:51.719Z,6.20
2023-03-15T00:19:24.073Z,6.18
2023-03-15T00:21:56.314Z,6.20
2023-03-15T00:24:28.686Z,6.20
2023-03-15T00:27:02.532Z,6.23
2023-03-15T00:29:35.004Z,6.22
2023-03-15T00:32:07.837Z,6.16
2023-03-15T00:34:40.398Z,6.11
2023-03-15T00:37:13.250Z,6.03
2023-03-15T00:39:45.621Z,5.94
2023-03-15T00:42:18.506Z,5.91
2023-03-15T00:44:51.854Z,5.81
2023-03-15T00:47:24.292Z,5.66
2023-03-15T00:49:56.695Z,5.60
2023-03-15T00:52:29.126Z,5.52
2023-03-15T00:55:01.479Z,5.49
2023-03-15T00:57:35.567Z,5.47
2023-03-15T01:00:09.984Z,5.51
2023-03-15T01:02:42.574Z,5.51
2023-03-15T01:05:13.572Z,5.44
2023-03-15T01:07:46.374Z,5.36
2023-03-15T01:10:19.557Z,5.36
2023-03-15T01:12:51.815Z,5.38
2023-03-15T01:15:24.438Z,5.35
2023-03-15T01:17:56.793Z,5.33
2023-03-15T01:20:29.214Z,5.31
2023-03-15T01:23:01.518Z,5.26
2023-03-15T01:25:33.924Z,5.17
2023-03-15T01:28:06.684Z,5.07
2023-03-15T01:30:39.098Z,5.03
2023-03-15T01:33:11.480Z,5.04
2023-03-15T01:35:43.945Z,5.07
2023-03-15T01:38:16.719Z,5.10
2023-03-15T01:40:47.509Z,5.03
2023-03-15T01:43:22.246Z,4.91
2023-03-15T01:46:05.544Z,4.83
2023-03-15T01:48:44.796Z,4.75
2023-03-15T01:51:21.725Z,4.62
2023-03-15T01:53:58.861Z,4.55
2023-03-15T01:56:32.103Z,4.56
2023-03-15T01:59:06.461Z,4.56
2023-03-15T02:01:40.069Z,4.50
2023-03-15T02:04:14.853Z,4.46
2023-03-15T02:06:49.399Z,4.36
2023-03-15T02:09:22.479Z,4.37
2023-03-15T02:11:54.855Z,4.43
2023-03-15T02:14:27.681Z,4.43
2023-03-15T02:16:58.262Z,4.34
2023-03-15T02:19:44.065Z,4.17
2023-03-15T02:22:24.833Z,4.04
2023-03-15T02:25:01.666Z,3.98
2023-03-15T02:27:35.687Z,3.97
2023-03-15T02:30:10.173Z,4.01
2023-03-15T02:32:42.649Z,4.04
2023-03-15T02:35:20.963Z,4.07
2023-03-15T02:37:53.371Z,4.11
2023-03-15T02:40:27.939Z,4.16
2023-03-15T02:43:02.507Z,4.27
2023-03-15T02:45:36.008Z,4.34
2023-03-15T02:48:09.504Z,4.35
2023-03-15T02:50:42.284Z,4.34
2023-03-15T02:53:14.759Z,4.38
2023-03-15T02:55:47.233Z,4.39
2023-03-15T02:58:19.604Z,4.42
2023-03-15T03:00:53.107Z,4.47
2023-03-15T03:03:25.628Z,4.52
2023-03-15T03:05:58.477Z,4.55
2023-03-15T03:08:31.600Z,4.51
2023-03-15T03:11:03.937Z,4.49
2023-03-15T03:13:36.283Z,4.49
2023-03-15T03:16:09.221Z,4.53
2023-03-15T03:18:42.908Z,4.63
2023-03-15T03:21:15.428Z,4.67
2023-03-15T03:23:47.852Z,4.73
2023-03-15T03:26:21.302Z,4.79
2023-03-15T03:28:53.986Z,4.84
2023-03-15T03:31:25.329Z,4.90
2023-03-15T03:33:58.636Z,4.90
2023-03-15T03:36:31.474Z,4.92
2023-03-15T03:39:04.609Z,4.92
2023-03-15T03:41:37.060Z,4.84
2023-03-15T03:44:09.523Z,4.73
2023-03-15T03:46:41.955Z,4.70
2023-03-15T03:49:14.858Z,4.63
2023-03-15T03:51:47.118Z,4.66
2023-03-15T03:54:21.481Z,4.70
2023-03-15T03:56:53.868Z,4.71
2023-03-15T03:59:26.581Z,4.67
2023-03-15T04:01:57.196Z,4.66
2023-03-15T04:04:29.657Z,4.59
2023-03-15T04:07:02.160Z,4.55
2023-03-15T04:09:37.818Z,4.51
2023-03-15T04:12:11.622Z,4.47
2023-03-15T04:14:43.846Z,4.46
2023-03-15T04:17:16.134Z,4.42
2023-03-15T04:19:48.616Z,4.36
2023-03-15T04:22:21.005Z,4.32
2023-03-15T04:24:54.110Z,4.31
2023-03-15T04:27:24.735Z,4.32
2023-03-15T04:29:57.156Z,4.32
2023-03-15T04:32:29.648Z,4.26
2023-03-15T04:35:02.286Z,4.16
2023-03-15T04:37:34.617Z,4.11
2023-03-15T04:40:09.782Z,4.11
2023-03-15T04:42:42.156Z,4.08
2023-03-15T04:45:15.247Z,4.01
2023-03-15T04:47:46.021Z,3.99
2023-03-15T04:50:18.904Z,3.99
2023-03-15T04:52:51.774Z,4.01
2023-03-15T04:55:24.380Z,3.99
2023-03-15T04:57:57.891Z,3.95
2023-03-15T05:00:32.643Z,3.89
2023-03-15T05:03:05.395Z,3.87
2023-03-15T05:05:36.753Z,3.85
2023-03-15T05:08:11.380Z,3.78
2023-03-15T05:10:44.529Z,3.79
2023-03-15T05:13:19.876Z,3.80
2023-03-15T05:15:54.100Z,3.83
2023-03-15T05:18:28.086Z,3.84
2023-03-15T05:21:01.254Z,3.83
2023-03-15T05:27:54.187Z,3.71
2023-03-15T05:30:27.932Z,3.67
2023-03-15T05:33:04.999Z,3.65
2023-03-15T05:35:39.025Z,3.67
2023-03-15T05:38:14.911Z,3.79
2023-03-15T05:40:50.927Z,3.89
2023-03-15T05:43:24.612Z,4.01
2023-03-15T05:45:58.339Z,4.17
2023-03-15T05:48:33.012Z,4.26
2023-03-15T05:51:07.379Z,4.28
2023-03-15T05:53:41.592Z,4.25
2023-03-15T05:56:16.112Z,4.21
2023-03-15T05:58:49.593Z,4.17
2023-03-15T06:07:21.398Z,4.28
2023-03-15T06:10:02.114Z,4.26
2023-03-15T06:12:34.467Z,4.25
2023-03-15T06:15:08.546Z,4.31
2023-03-15T06:17:40.880Z,4.41
2023-03-15T06:20:15.231Z,4.49
2023-03-15T06:22:47.766Z,4.56
2023-03-15T06:25:18.622Z,4.68
2023-03-15T06:27:51.078Z,4.79
2023-03-15T06:30:23.671Z,4.88
2023-03-15T06:32:54.377Z,4.95
2023-03-15T06:35:27.068Z,5.04
2023-03-15T06:37:57.878Z,5.19
2023-03-15T06:40:30.351Z,5.21
2023-03-15T06:43:06.405Z,5.29
2023-03-15T06:45:38.851Z,5.46
2023-03-15T06:48:11.407Z,5.60
2023-03-15T06:50:47.201Z,5.75
2023-03-15T06:53:20.161Z,5.81
2023-03-15T06:55:52.519Z,5.86
2023-03-15T06:58:24.903Z,5.94
2023-03-15T07:00:57.542Z,6.05
2023-03-15T07:03:29.957Z,6.19
2023-03-15T07:06:02.395Z,6.32
2023-03-15T07:08:34.854Z,6.41
2023-03-15T07:11:07.689Z,6.45
2023-03-15T07:13:40.193Z,6.48
2023-03-15T07:16:12.538Z,6.51
2023-03-15T07:18:44.908Z,6.52
2023-03-15T07:21:17.367Z,6.52
2023-03-15T07:23:49.767Z,6.47
2023-03-15T07:26:22.170Z,6.46
2023-03-15T07:28:54.521Z,6.42
2023-03-15T07:31:27.013Z,6.38
2023-03-15T07:33:59.495Z,6.40
2023-03-15T07:36:32.595Z,6.42
2023-03-15T07:39:05.083Z,6.47
2023-03-15T07:41:37.476Z,6.63
2023-03-15T07:44:10.384Z,6.81
2023-03-15T07:46:42.990Z,6.95
2023-03-15T07:49:13.742Z,7.07
2023-03-15T07:51:46.327Z,7.20
2023-03-15T07:54:19.590Z,7.35
2023-03-15T07:56:51.956Z,7.43
2023-03-15T07:59:24.454Z,7.51
2023-03-15T08:01:56.901Z,7.52
2023-03-15T08:04:29.340Z,7.61
2023-03-15T08:07:01.833Z,7.70
2023-03-15T08:09:34.747Z,7.79
2023-03-15T08:12:07.515Z,7.91
2023-03-15T08:14:39.834Z,8.00
2023-03-15T08:17:16.385Z,8.03
2023-03-15T08:19:48.816Z,8.04
2023-03-15T08:22:21.141Z,8.08
2023-03-15T08:24:54.073Z,8.19
2023-03-15T08:27:26.488Z,8.29
2023-03-15T08:35:34.514Z,8.50
2023-03-15T08:38:07.021Z,8.61
2023-03-15T08:40:40.849Z,8.72
2023-03-15T08:43:13.130Z,8.81
2023-03-15T08:46:00.215Z,8.83
2023-03-15T08:48:33.501Z,8.87
2023-03-15T08:51:07.100Z,8.88
2023-03-15T08:53:39.885Z,8.88
2023-03-15T08:56:12.411Z,8.93
2023-03-15T08:58:44.849Z,9.08
2023-03-15T09:01:17.885Z,9.23
2023-03-15T09:03:51.939Z,9.26
2023-03-15T09:06:24.573Z,9.30
2023-03-15T09:08:56.966Z,9.36
2023-03-15T09:11:29.382Z,9.43
2023-03-15T09:14:01.856Z,9.53
2023-03-15T09:16:34.263Z,9.65
2023-03-15T09:19:06.745Z,9.83
2023-03-15T09:21:39.152Z,9.97
2023-03-15T09:24:11.503Z,10.03
2023-03-15T09:26:43.846Z,10.13
2023-03-15T09:29:16.221Z,10.25
2023-03-15T09:31:48.630Z,10.35
2023-03-15T09:34:21.890Z,10.45
2023-03-15T09:36:54.782Z,10.57
2023-03-15T09:39:25.519Z,10.73
2023-03-15T09:41:59.818Z,10.98
2023-03-15T09:44:44.857Z,11.13
2023-03-15T09:47:25.583Z,11.35
2023-03-15T09:50:03.264Z,11.62
2023-03-15T09:52:41.120Z,11.87
2023-03-15T09:55:17.437Z,12.06
2023-03-15T09:57:52.242Z,12.20
2023-03-15T10:00:28.618Z,12.35
2023-03-15T10:03:07.288Z,12.45
2023-03-15T10:05:43.102Z,12.55
2023-03-15T10:08:17.871Z,12.67
2023-03-15T10:10:54.657Z,12.81
2023-03-15T10:13:37.376Z,12.94
2023-03-15T10:16:19.793Z,13.05
2023-03-15T10:19:03.128Z,12.98
2023-03-15T10:21:42.967Z,13.02
2023-03-15T10:24:20.815Z,12.99
2023-03-15T10:26:53.868Z,12.99
2023-03-15T10:29:28.695Z,12.96
2023-03-15T10:32:01.540Z,12.93
2023-03-15T10:34:35.590Z,12.91
2023-03-15T10:37:09.721Z,12.96
2023-03-15T10:39:46.937Z,12.99
2023-03-15T10:42:34.095Z,13.03
2023-03-15T10:45:22.232Z,13.03
2023-03-15T10:48:00.371Z,13.08
2023-03-15T10:50:35.516Z,13.15
2023-03-15T10:53:13.721Z,13.23
2023-03-15T10:55:47.892Z,13.29
2023-03-15T10:58:27.634Z,13.28
2023-03-15T11:01:07.601Z,13.28
2023-03-15T11:03:40.844Z,13.27
2023-03-15T11:09:16.346Z,13.23
2023-03-15T11:12:01.878Z,13.27
2023-03-15T11:14:41.126Z,13.33
2023-03-15T11:17:21.066Z,13.34
2023-03-15T11:19:59.524Z,13.36
2023-03-15T11:22:31.909Z,13.43
2023-03-15T11:25:04.804Z,13.56
2023-03-15T11:27:35.640Z,13.61
2023-03-15T11:30:14.191Z,13.54
2023-03-15T11:32:47.368Z,13.52
2023-03-15T11:38:35.070Z,13.50
2023-03-15T11:41:20.205Z,13.52
2023-03-15T11:44:17.176Z,13.55
2023-03-15T11:47:23.037Z,13.63
2023-03-15T11:53:14.659Z,13.70
2023-03-15T11:59:11.493Z,13.87
2023-03-15T12:01:49.883Z,13.95
2023-03-15T12:04:45.724Z,14.05
2023-03-15T12:07:40.375Z,14.14
2023-03-15T12:10:34.363Z,14.21
2023-03-15T12:13:21.422Z,14.27
2023-03-15T12:15:54.328Z,14.33
2023-03-15T12:18:32.710Z,14.32
2023-03-15T12:21:24.959Z,14.33
2023-03-15T12:24:04.054Z,14.29
2023-03-15T12:26:44.943Z,14.25
2023-03-15T12:29:24.605Z,14.19
2023-03-15T12:32:00.983Z,14.16
2023-03-15T12:34:39.394Z,14.18
2023-03-15T12:37:17.098Z,14.22
2023-03-15T12:39:51.970Z,14.22
2023-03-15T12:43:10.752Z,14.23
2023-03-15T12:45:48.024Z,14.25
2023-03-15T12:48:28.334Z,14.26
2023-03-15T12:51:16.564Z,14.25
2023-03-15T12:53:56.101Z,14.22
2023-03-15T12:56:37.790Z,14.25
2023-03-15T12:59:32.163Z,14.24
2023-03-15T13:02:11.989Z,14.25
2023-03-15T13:04:44.478Z,14.30
2023-03-15T13:07:27.482Z,14.40
2023-03-15T13:10:16.995Z,14.48
2023-03-15T13:12:54.127Z,14.53
2023-03-15T13:15:29.970Z,14.65
2023-03-15T13:18:10.731Z,14.77
2023-03-15T13:20:47.051Z,14.92
2023-03-15T13:23:21.824Z,15.05
2023-03-15T13:26:10.207Z,15.18
2023-03-15T13:28:47.563Z,15.25
2023-03-15T13:31:24.456Z,15.28
2023-03-15T13:33:58.564Z,15.32
2023-03-15T13:36:40.218Z,15.37
2023-03-15T13:39:19.841Z,15.43
2023-03-15T13:41:57.763Z,15.39
2023-03-15T13:44:31.086Z,15.37
2023-03-15T13:47:03.755Z,15.45
2023-03-15T13:49:36.728Z,15.56
2023-03-15T13:52:14.828Z,15.64
2023-03-15T13:54:47.376Z,15.64
2023-03-15T13:57:22.153Z,15.63
2023-03-15T13:59:59.648Z,15.66
2023-03-15T14:02:38.665Z,15.64
2023-03-15T14:05:14.456Z,15.62
2023-03-15T14:07:48.622Z,15.59
2023-03-15T14:10:34.726Z,15.62
2023-03-15T14:13:24.728Z,15.71
2023-03-15T14:16:01.685Z,15.78
2023-03-15T14:18:39.188Z,15.85
2023-03-15T14:21:17.154Z,15.90
2023-03-15T14:23:50.624Z,15.94
2023-03-15T14:26:24.996Z,15.98
2023-03-15T14:29:02.323Z,16.02
2023-03-15T14:31:36.347Z,16.03
2023-03-15T14:34:17.736Z,15.99
2023-03-15T14:36:50.105Z,15.96
2023-03-15T14:39:27.969Z,15.94
2023-03-15T14:42:00.491Z,15.98
2023-03-15T14:44:31.072Z,16.02
2023-03-15T14:47:03.496Z,16.00
2023-03-15T14:49:35.885Z,16.04
2023-03-15T14:52:10.344Z,16.08
2023-03-15T14:54:45.975Z,16.13
2023-03-15T14:57:18.364Z,16.16
2023-03-15T14:59:52.865Z,16.16
2023-03-15T15:02:25.251Z,16.14
2023-03-15T15:04:56.383Z,16.10
2023-03-15T15:07:28.717Z,16.07
2023-03-15T15:10:01.131Z,16.05
2023-03-15T15:12:33.405Z,15.97
2023-03-15T15:15:07.073Z,15.90
2023-03-15T15:17:39.331Z,15.80
2023-03-15T15:20:15.768Z,15.77
2023-03-15T15:22:50.928Z,15.72
2023-03-15T15:25:24.653Z,15.70
2023-03-15T15:27:57.133Z,15.65
2023-03-15T15:30:31.412Z,15.59
2023-03-15T15:33:03.803Z,15.57
2023-03-15T15:35:36.301Z,15.56
2023-03-15T15:38:09.453Z,15.56
2023-03-15T15:40:42.156Z,15.53
2023-03-15T15:43:15.049Z,15.52
2023-03-15T15:45:47.550Z,15.49
2023-03-15T15:48:18.246Z,15.45
2023-03-15T15:50:51.291Z,15.39
2023-03-15T15:53:23.612Z,15.33
2023-03-15T15:55:57.848Z,15.29
2023-03-15T15:58:30.430Z,15.27
2023-03-15T16:01:01.160Z,15.25
2023-03-15T16:03:34.032Z,15.17
2023-03-15T16:06:06.970Z,15.12
2023-03-15T16:08:41.808Z,15.10
2023-03-15T16:11:16.569Z,15.10
2023-03-15T16:13:51.038Z,15.06
2023-03-15T16:16:23.753Z,15.01
2023-03-15T16:18:56.264Z,14.98
2023-03-15T16:21:33.912Z,14.95
2023-03-15T16:24:09.040Z,14.93
2023-03-15T16:26:42.129Z,14.90
2023-03-15T16:29:19.452Z,14.91
2023-03-15T16:32:16.397Z,14.91
2023-03-15T16:34:52.423Z,14.81
2023-03-15T16:37:27.652Z,14.75
2023-03-15T16:40:18.634Z,14.74
2023-03-15T16:42:51.589Z,14.69
2023-03-15T16:45:24.568Z,14.65
2023-03-15T16:47:57.054Z,14.63
2023-03-15T16:50:28.523Z,14.59
2023-03-15T16:53:02.730Z,14.52
2023-03-15T16:55:38.270Z,14.47
2023-03-15T16:58:19.011Z,14.44
2023-03-15T17:00:51.536Z,14.42
2023-03-15T17:03:22.557Z,14.39
2023-03-15T17:05:55.835Z,14.33
2023-03-15T17:08:29.753Z,14.29
2023-03-15T17:11:02.614Z,14.28
2023-03-15T17:13:40.592Z,14.23
2023-03-15T17:16:18.313Z,14.18
2023-03-15T17:18:54.906Z,14.14
2023-03-15T17:25:01.813Z,14.04
2023-03-15T17:27:33.629Z,13.99
2023-03-15T17:30:09.040Z,13.95
2023-03-15T17:32:42.011Z,13.94
2023-03-15T17:35:15.379Z,13.91
2023-03-15T17:37:48.317Z,13.88
2023-03-15T17:40:26.576Z,13.85
2023-03-15T17:43:01.075Z,13.79
2023-03-15T17:45:35.198Z,13.68
2023-03-15T17:48:08.267Z,13.56
2023-03-15T17:50:41.608Z,13.45
2023-03-15T17:53:18.867Z,13.37
2023-03-15T17:55:53.811Z,13.31
2023-03-15T17:58:28.993Z,13.26
2023-03-15T18:01:02.075Z,13.22
2023-03-15T18:03:35.248Z,13.18
2023-03-15T18:06:09.671Z,13.09
2023-03-15T18:08:42.915Z,13.01
2023-03-15T18:11:23.390Z,12.97
2023-03-15T18:13:56.649Z,12.92
2023-03-15T18:16:30.148Z,12.82
2023-03-15T18:19:02.822Z,12.72
2023-03-15T18:21:36.552Z,12.66
2023-03-15T18:24:12.654Z,12.58
2023-03-15T18:26:55.368Z,12.50
2023-03-15T18:29:27.986Z,12.44
2023-03-15T18:32:04.140Z,12.38
2023-03-15T18:34:40.324Z,12.31
2023-03-15T18:37:12.936Z,12.26
2023-03-15T18:39:45.432Z,12.25
2023-03-15T18:42:16.158Z,12.23
2023-03-15T18:44:48.545Z,12.18
2023-03-15T18:47:21.028Z,12.13
2023-03-15T18:49:55.486Z,12.09
2023-03-15T18:52:34.052Z,11.97
2023-03-15T19:01:17.045Z,11.72
2023-03-15T19:03:50.018Z,11.61
2023-03-15T19:06:23.123Z,11.55
2023-03-15T19:08:55.746Z,11.51
2023-03-15T19:11:31.790Z,11.49
2023-03-15T19:14:04.112Z,11.44
2023-03-15T19:16:35.118Z,11.35
2023-03-15T19:19:08.002Z,11.26
2023-03-15T19:21:42.501Z,11.21
2023-03-15T19:24:14.877Z,11.19
2023-03-15T19:26:47.114Z,11.14
2023-03-15T19:29:22.456Z,11.07
2023-03-15T19:31:55.420Z,11.02
2023-03-15T19:34:28.376Z,10.97
2023-03-15T19:37:01.818Z,10.90
2023-03-15T19:39:34.383Z,10.80
2023-03-15T19:42:06.945Z,10.68
2023-03-15T19:44:39.878Z,10.66
2023-03-15T19:47:12.839Z,10.66
2023-03-15T19:49:46.096Z,10.67
2023-03-15T19:52:18.553Z,10.64
2023-03-15T19:54:51.957Z,10.58
2023-03-15T19:57:24.960Z,10.54
2023-03-15T19:59:57.502Z,10.45
2023-03-15T20:02:33.062Z,10.41
2023-03-15T20:05:06.583Z,10.38
2023-03-15T20:07:41.060Z,10.36
2023-03-15T20:10:19.156Z,10.31
2023-03-15T20:12:52.645Z,10.29
2023-03-15T20:15:29.316Z,10.28
2023-03-15T20:18:02.612Z,10.27
2023-03-15T20:20:35.176Z,10.24
2023-03-15T20:23:06.488Z,10.18
2023-03-15T20:25:39.353Z,10.10
2023-03-15T20:28:27.916Z,10.04
2023-03-15T20:31:03.100Z,9.98
2023-03-15T20:33:38.383Z,9.92
2023-03-15T20:36:13.075Z,9.88
2023-03-15T20:38:46.768Z,9.84
2023-03-15T20:41:19.755Z,9.82
2023-03-15T20:43:54.185Z,9.75
2023-03-15T20:46:26.820Z,9.70
2023-03-15T20:48:59.962Z,9.70
2023-03-15T20:51:32.539Z,9.66
2023-03-15T20:54:05.814Z,9.60
2023-03-15T20:56:38.436Z,9.55
2023-03-15T20:59:09.306Z,9.50
2023-03-15T21:01:52.285Z,9.49
2023-03-15T21:04:45.598Z,9.44
2023-03-15T21:07:20.054Z,9.39
2023-03-15T21:09:53.368Z,9.40
2023-03-15T21:12:25.841Z,9.44
2023-03-15T21:14:58.343Z,9.40
2023-03-15T21:17:29.144Z,9.35
2023-03-15T21:20:01.666Z,9.32
2023-03-15T21:22:32.505Z,9.32
2023-03-15T21:25:05.802Z,9.24
2023-03-15T21:27:38.292Z,9.18
2023-03-15T21:30:14.691Z,9.15
2023-03-15T21:33:01.568Z,9.15
2023-03-15T21:38:36.790Z,9.11
2023-03-15T21:44:57.511Z,9.03
2023-03-15T22:19:05.116Z,9.50
2023-03-15T22:35:45.822Z,9.20
2023-03-15T22:38:15.181Z,9.05
2023-03-15T22:41:04.450Z,8.91
2023-03-15T22:43:33.659Z,8.88
2023-03-15T22:55:09.916Z,8.71
2023-03-15T22:57:39.055Z,8.72
2023-03-15T23:00:14.217Z,8.72
2023-03-15T23:02:43.608Z,8.69
2023-03-15T23:05:13.633Z,8.62
2023-03-15T23:10:44.845Z,8.54
2023-03-15T23:13:15.020Z,8.56
2023-03-15T23:15:50.824Z,8.55
2023-03-15T23:18:21.582Z,8.54
2023-03-15T23:20:50.688Z,8.57
2023-03-15T23:23:37.224Z,8.60
2023-03-15T23:29:10.116Z,8.57
2023-03-15T23:31:39.996Z,8.53
2023-03-15T23:34:09.431Z,8.46
2023-03-15T23:36:38.668Z,8.39
2023-03-15T23:39:22.564Z,8.35
2023-03-15T23:47:47.802Z,8.42
2023-03-15T23:50:18.180Z,8.40
2023-03-15T23:53:02.489Z,8.40
2023-03-15T23:55:32.780Z,8.40
